createdAt,value
2018-01-18T00:00:02.464Z,82.68
2018-01-18T00:02:30.783Z,82.44
2018-01-18T00:04:59.606Z,82.75
2018-01-18T00:07:27.884Z,83.06
2018-01-18T00:09:56.236Z,83.29
2018-01-18T00:12:24.550Z,83.55
2018-01-18T00:14:53.616Z,83.28
2018-01-18T00:17:22.686Z,82.50
2018-01-18T00:19:51.010Z,82.25
2018-01-18T00:22:19.305Z,82.38
2018-01-18T00:24:48.363Z,82.80
2018-01-18T00:27:17.082Z,82.50
2018-01-18T00:29:46.136Z,82.98
2018-01-18T00:32:14.419Z,82.71
2018-01-18T00:34:42.834Z,81.93
2018-01-18T00:37:11.908Z,82.32
2018-01-18T00:39:40.309Z,83.06
2018-01-18T00:42:09.420Z,82.88
2018-01-18T00:44:37.843Z,82.43
2018-01-18T00:47:06.930Z,81.90
2018-01-18T00:49:35.380Z,81.91
2018-01-18T00:52:03.665Z,82.24
2018-01-18T00:54:31.960Z,82.25
2018-01-18T00:57:00.282Z,82.49
2018-01-18T00:59:28.568Z,81.80
2018-01-18T01:01:57.636Z,81.00
2018-01-18T01:04:25.968Z,80.83
2018-01-18T01:06:54.291Z,80.54
2018-01-18T01:09:22.585Z,80.85
2018-01-18T01:11:51.368Z,80.88
2018-01-18T01:14:20.417Z,81.21
2018-01-18T01:16:48.708Z,81.57
2018-01-18T01:19:17.112Z,81.24
2018-01-18T01:21:45.435Z,81.29
2018-01-18T01:24:13.772Z,80.46
2018-01-18T01:26:42.109Z,81.11
2018-01-18T01:29:10.425Z,82.08
2018-01-18T01:31:38.714Z,81.32
2018-01-18T01:34:07.116Z,80.80
2018-01-18T01:36:35.445Z,80.63
2018-01-18T01:39:04.506Z,80.85
2018-01-18T01:41:32.928Z,82.18
2018-01-18T01:44:01.223Z,81.29
2018-01-18T01:46:29.539Z,80.75
2018-01-18T01:48:58.011Z,81.26
2018-01-18T01:51:27.300Z,81.01
2018-01-18T01:53:56.401Z,81.72
2018-01-18T01:56:24.876Z,82.10
2018-01-18T01:58:53.183Z,82.09
2018-01-18T02:01:21.464Z,82.44
2018-01-18T02:03:49.804Z,82.09
2018-01-18T02:06:18.135Z,82.43
2018-01-18T02:08:46.434Z,82.51
2018-01-18T02:11:14.749Z,81.86
2018-01-18T02:13:43.088Z,81.83
2018-01-18T02:16:11.394Z,81.52
2018-01-18T02:18:39.932Z,81.70
2018-01-18T02:21:08.240Z,81.55
2018-01-18T02:23:36.555Z,80.99
2018-01-18T02:26:05.665Z,80.81
2018-01-18T02:28:33.957Z,81.51
2018-01-18T02:31:02.243Z,80.97
2018-01-18T02:33:30.557Z,80.97
2018-01-18T02:35:58.866Z,81.15
2018-01-18T02:38:27.207Z,81.26
2018-01-18T02:40:55.613Z,81.36
2018-01-18T02:43:23.921Z,80.78
2018-01-18T02:45:52.221Z,81.22
2018-01-18T02:48:20.528Z,79.57
2018-01-18T02:50:49.683Z,81.51
2018-01-18T02:53:17.973Z,80.96
2018-01-18T02:55:46.303Z,80.99
2018-01-18T02:58:14.604Z,81.37
2018-01-18T03:00:42.885Z,80.85
2018-01-18T03:03:11.720Z,80.43
2018-01-18T03:05:40.029Z,80.30
2018-01-18T03:08:08.338Z,80.73
2018-01-18T03:10:36.657Z,82.15
2018-01-18T03:13:04.933Z,82.36
2018-01-18T03:15:33.255Z,82.24
2018-01-18T03:18:01.784Z,83.06
2018-01-18T03:20:30.095Z,82.67
2018-01-18T03:22:58.411Z,82.49
2018-01-18T03:25:27.030Z,83.24
2018-01-18T03:27:55.507Z,82.40
2018-01-18T03:30:24.160Z,82.74
2018-01-18T03:32:52.557Z,82.54
2018-01-18T03:35:20.897Z,81.49
2018-01-18T03:37:49.213Z,81.39
2018-01-18T03:40:17.689Z,80.85
2018-01-18T03:42:46.092Z,82.20
2018-01-18T03:45:14.471Z,82.09
2018-01-18T03:47:43.538Z,81.92
2018-01-18T03:50:11.853Z,82.28
2018-01-18T03:52:40.294Z,82.37
2018-01-18T03:55:08.723Z,82.22
2018-01-18T03:57:37.053Z,82.67
2018-01-18T04:00:05.391Z,82.29
2018-01-18T04:02:33.806Z,81.93
2018-01-18T04:05:02.204Z,81.08
2018-01-18T04:07:30.604Z,81.80
2018-01-18T04:09:59.304Z,82.39
2018-01-18T04:12:27.673Z,82.07
2018-01-18T04:14:56.166Z,82.13
2018-01-18T04:17:24.578Z,81.40
2018-01-18T04:19:52.973Z,81.46
2018-01-18T04:22:21.421Z,81.73
2018-01-18T04:24:50.667Z,81.23
2018-01-18T04:27:19.075Z,80.58
2018-01-18T04:29:47.556Z,80.81
2018-01-18T04:32:16.756Z,80.30
2018-01-18T04:34:45.104Z,79.93
2018-01-18T04:37:13.516Z,80.88
2018-01-18T04:39:42.193Z,80.57
2018-01-18T04:42:10.481Z,80.39
2018-01-18T04:44:38.858Z,81.09
2018-01-18T04:47:07.232Z,81.19
2018-01-18T04:49:35.611Z,80.67
2018-01-18T04:52:03.990Z,80.46
2018-01-18T04:54:32.855Z,79.75
2018-01-18T04:57:01.237Z,79.74
2018-01-18T04:59:29.614Z,80.04
2018-01-18T05:01:57.920Z,80.32
2018-01-18T05:04:26.263Z,80.18
2018-01-18T05:06:54.671Z,81.08
2018-01-18T05:09:23.062Z,80.38
2018-01-18T05:11:51.382Z,79.83
2018-01-18T05:14:19.718Z,79.56
2018-01-18T05:16:48.308Z,79.75
2018-01-18T05:19:16.681Z,80.20
2018-01-18T05:21:45.060Z,79.83
2018-01-18T05:24:13.553Z,80.15
2018-01-18T05:26:42.686Z,80.17
2018-01-18T05:29:11.012Z,79.64
2018-01-18T05:31:40.246Z,80.42
2018-01-18T05:34:08.682Z,80.33
2018-01-18T05:36:37.044Z,79.73
2018-01-18T05:39:05.629Z,79.53
2018-01-18T05:41:33.986Z,79.82
2018-01-18T05:44:02.308Z,79.55
2018-01-18T05:46:30.800Z,79.91
2018-01-18T05:48:59.144Z,79.65
2018-01-18T05:51:27.524Z,80.67
2018-01-18T05:53:56.039Z,80.40
2018-01-18T05:56:24.404Z,80.30
2018-01-18T05:58:52.746Z,79.76
2018-01-18T06:01:21.347Z,79.26
2018-01-18T06:03:49.648Z,78.99
2018-01-18T06:06:18.120Z,78.99
2018-01-18T06:08:46.455Z,79.31
2018-01-18T06:11:14.763Z,79.87
2018-01-18T06:13:43.130Z,80.31
2018-01-18T06:16:11.460Z,80.15
2018-01-18T06:18:39.919Z,80.50
2018-01-18T06:21:08.307Z,80.58
2018-01-18T06:23:36.932Z,80.44
2018-01-18T06:26:06.153Z,80.12
2018-01-18T06:28:34.517Z,80.20
2018-01-18T06:31:02.932Z,79.99
2018-01-18T06:33:31.406Z,79.79
2018-01-18T06:35:59.760Z,79.96
2018-01-18T06:38:28.168Z,80.26
2018-01-18T06:40:56.560Z,80.79
2018-01-18T06:43:25.360Z,80.78
2018-01-18T06:45:55.486Z,80.42
2018-01-18T06:48:23.862Z,80.37
2018-01-18T06:50:52.154Z,80.91
2018-01-18T06:53:20.459Z,80.22
2018-01-18T06:55:49.531Z,79.50
2018-01-18T06:58:18.626Z,78.95
2018-01-18T07:00:46.980Z,79.78
2018-01-18T07:03:15.306Z,80.21
2018-01-18T07:05:44.357Z,80.50
2018-01-18T07:08:12.986Z,80.53
2018-01-18T07:10:41.296Z,81.08
2018-01-18T07:13:09.650Z,81.79
2018-01-18T07:15:37.977Z,82.10
2018-01-18T07:18:06.281Z,81.23
2018-01-18T07:20:35.348Z,81.38
2018-01-18T07:23:04.436Z,81.53
2018-01-18T07:25:32.767Z,81.15
2018-01-18T07:28:01.858Z,81.80
2018-01-18T07:30:31.477Z,81.80
2018-01-18T07:32:59.779Z,83.29
2018-01-18T07:35:28.167Z,83.30
2018-01-18T07:37:56.513Z,82.63
2018-01-18T07:40:24.821Z,82.66
2018-01-18T07:42:53.240Z,83.20
2018-01-18T07:45:21.931Z,83.47
2018-01-18T07:47:51.077Z,84.88
2018-01-18T07:50:19.384Z,85.35
2018-01-18T07:52:48.744Z,85.15
2018-01-18T07:55:17.058Z,84.16
2018-01-18T07:57:45.392Z,84.54
2018-01-18T08:00:13.753Z,84.61
2018-01-18T08:02:48.234Z,85.68
2018-01-18T08:05:16.801Z,85.73
2018-01-18T08:07:45.092Z,85.15
2018-01-18T08:10:13.395Z,86.22
2018-01-18T08:12:41.932Z,87.05
2018-01-18T08:15:10.289Z,87.29
2018-01-18T08:17:39.392Z,85.92
2018-01-18T08:20:07.732Z,86.10
2018-01-18T08:22:36.075Z,86.30
2018-01-18T08:25:04.383Z,87.84
2018-01-18T08:27:32.714Z,87.71
2018-01-18T08:30:01.052Z,88.06
2018-01-18T08:32:29.382Z,89.22
2018-01-18T08:34:57.966Z,88.93
2018-01-18T08:37:26.294Z,88.86
2018-01-18T08:39:54.609Z,88.87
2018-01-18T08:42:23.204Z,88.85
2018-01-18T08:44:51.495Z,88.72
2018-01-18T08:47:20.184Z,89.17
2018-01-18T08:49:48.506Z,89.61
2018-01-18T08:52:17.566Z,89.32
2018-01-18T08:54:45.878Z,88.88
2018-01-18T08:57:14.387Z,88.73
2018-01-18T08:59:43.461Z,89.22
2018-01-18T09:02:12.556Z,89.24
2018-01-18T09:04:41.657Z,89.27
2018-01-18T09:07:10.796Z,89.87
2018-01-18T09:09:39.142Z,90.53
2018-01-18T09:12:07.455Z,89.50
2018-01-18T09:14:35.776Z,89.97
2018-01-18T09:17:04.843Z,88.65
2018-01-18T09:19:33.300Z,87.78
2018-01-18T09:22:01.624Z,88.29
2018-01-18T09:24:29.922Z,88.15
2018-01-18T09:26:58.995Z,87.99
2018-01-18T09:29:27.327Z,87.81
2018-01-18T09:31:55.668Z,86.90
2018-01-18T09:34:25.162Z,86.96
2018-01-18T09:36:53.455Z,87.16
2018-01-18T09:39:22.549Z,87.46
2018-01-18T09:41:50.956Z,87.16
2018-01-18T09:44:19.250Z,87.86
2018-01-18T09:46:47.544Z,88.59
2018-01-18T09:49:15.883Z,88.87
2018-01-18T09:51:44.200Z,89.22
2018-01-18T09:54:12.542Z,89.10
2018-01-18T09:56:40.916Z,88.61
2018-01-18T09:59:09.346Z,88.15
2018-01-18T10:01:37.677Z,88.01
2018-01-18T10:04:06.074Z,87.62
2018-01-18T10:06:34.377Z,87.01
2018-01-18T10:09:02.660Z,86.73
2018-01-18T10:11:31.035Z,86.32
2018-01-18T10:14:00.123Z,84.89
2018-01-18T10:16:28.453Z,84.10
2018-01-18T10:18:57.553Z,83.56
2018-01-18T10:21:25.841Z,85.55
2018-01-18T10:23:54.361Z,84.93
2018-01-18T10:26:23.257Z,84.10
2018-01-18T10:28:51.576Z,84.63
2018-01-18T10:31:19.889Z,85.40
2018-01-18T10:33:48.324Z,86.05
2018-01-18T10:36:16.676Z,86.39
2018-01-18T10:38:44.974Z,85.86
2018-01-18T10:41:14.079Z,85.49
2018-01-18T10:43:43.146Z,85.46
2018-01-18T10:46:11.448Z,85.51
2018-01-18T10:48:40.740Z,84.56
2018-01-18T10:51:09.065Z,83.88
2018-01-18T10:53:37.384Z,84.25
2018-01-18T10:56:05.745Z,84.48
2018-01-18T10:58:34.041Z,84.41
2018-01-18T11:01:02.341Z,83.38
2018-01-18T11:03:31.527Z,82.54
2018-01-18T11:05:59.833Z,81.96
2018-01-18T11:08:28.901Z,81.53
2018-01-18T11:10:57.329Z,81.99
2018-01-18T11:13:25.633Z,81.87
2018-01-18T11:15:53.952Z,81.88
2018-01-18T11:18:22.296Z,80.87
2018-01-18T11:20:50.662Z,80.54
2018-01-18T11:23:18.960Z,80.47
2018-01-18T11:25:47.316Z,79.61
2018-01-18T11:28:15.633Z,79.97
2018-01-18T11:30:44.032Z,79.39
2018-01-18T11:33:13.911Z,80.13
2018-01-18T11:35:42.253Z,79.75
2018-01-18T11:38:10.553Z,80.50
2018-01-18T11:40:38.859Z,80.81
2018-01-18T11:43:07.177Z,80.65
2018-01-18T11:45:35.495Z,80.51
2018-01-18T11:48:03.825Z,80.64
2018-01-18T11:50:32.160Z,80.54
2018-01-18T11:53:00.517Z,79.86
2018-01-18T11:55:29.112Z,80.50
2018-01-18T11:57:57.394Z,80.74
2018-01-18T12:00:25.706Z,81.07
2018-01-18T12:02:54.816Z,80.68
2018-01-18T12:05:23.124Z,81.26
2018-01-18T12:07:51.594Z,81.63
2018-01-18T12:10:19.911Z,82.31
2018-01-18T12:12:48.220Z,82.12
2018-01-18T12:15:17.294Z,83.08
2018-01-18T12:17:45.978Z,81.99
2018-01-18T12:20:14.301Z,80.86
2018-01-18T12:22:42.603Z,80.83
2018-01-18T12:25:10.972Z,80.63
2018-01-18T12:27:39.312Z,80.17
2018-01-18T12:30:07.614Z,79.37
2018-01-18T12:32:35.955Z,78.73
2018-01-18T12:35:04.270Z,79.21
2018-01-18T12:37:32.612Z,78.46
2018-01-18T12:40:01.103Z,78.71
2018-01-18T12:42:29.408Z,79.07
2018-01-18T12:44:58.570Z,78.81
2018-01-18T12:47:27.663Z,78.65
2018-01-18T12:49:56.752Z,78.45
2018-01-18T12:52:25.049Z,77.98
2018-01-18T12:54:54.179Z,77.87
2018-01-18T12:57:22.498Z,78.29
2018-01-18T12:59:50.876Z,78.20
2018-01-18T13:02:19.696Z,78.39
2018-01-18T13:04:48.792Z,78.48
2018-01-18T13:07:17.086Z,77.44
2018-01-18T13:09:45.389Z,77.57
2018-01-18T13:12:13.792Z,78.01
2018-01-18T13:14:42.172Z,77.94
2018-01-18T13:17:10.508Z,78.00
2018-01-18T13:19:38.824Z,78.40
2018-01-18T13:22:07.187Z,78.48
2018-01-18T13:24:36.683Z,78.90
2018-01-18T13:27:05.162Z,78.13
2018-01-18T13:29:33.465Z,78.26
2018-01-18T13:32:01.822Z,78.13
2018-01-18T13:34:30.140Z,78.36
2018-01-18T13:36:58.484Z,79.20
2018-01-18T13:39:26.789Z,79.24
2018-01-18T13:41:55.078Z,78.99
2018-01-18T13:44:23.387Z,79.97
2018-01-18T13:46:52.079Z,79.83
2018-01-18T13:49:20.391Z,80.38
2018-01-18T13:51:48.693Z,80.47
2018-01-18T13:54:17.051Z,79.69
2018-01-18T13:56:45.374Z,79.72
2018-01-18T13:59:14.439Z,79.78
2018-01-18T14:01:42.773Z,79.42
2018-01-18T14:04:11.065Z,80.18
2018-01-18T14:06:39.366Z,80.10
2018-01-18T14:09:07.898Z,80.28
2018-01-18T14:11:36.216Z,81.20
2018-01-18T14:14:04.559Z,81.31
2018-01-18T14:16:32.932Z,80.68
2018-01-18T14:19:01.225Z,79.80
2018-01-18T14:21:29.554Z,79.78
2018-01-18T14:23:57.895Z,80.36
2018-01-18T14:26:26.216Z,79.85
2018-01-18T14:28:54.559Z,80.30
2018-01-18T14:31:23.317Z,80.75
2018-01-18T14:33:51.629Z,80.38
2018-01-18T14:36:19.936Z,80.01
2018-01-18T14:38:48.260Z,80.16
2018-01-18T14:41:16.632Z,79.84
2018-01-18T14:43:44.972Z,80.34
2018-01-18T14:46:13.313Z,80.07
2018-01-18T14:48:41.659Z,79.88
2018-01-18T14:51:09.973Z,79.79
2018-01-18T14:53:39.163Z,80.36
2018-01-18T14:56:07.468Z,79.89
2018-01-18T14:58:35.746Z,80.32
2018-01-18T15:01:04.068Z,80.41
2018-01-18T15:03:33.140Z,80.87
2018-01-18T15:06:02.213Z,81.03
2018-01-18T15:08:30.591Z,80.91
2018-01-18T15:10:58.937Z,80.46
2018-01-18T15:13:27.220Z,80.91
2018-01-18T15:15:55.748Z,80.24
2018-01-18T15:18:24.040Z,80.32
2018-01-18T15:20:53.106Z,81.14
2018-01-18T15:23:21.462Z,81.78
2018-01-18T15:25:49.757Z,81.50
2018-01-18T15:28:18.188Z,81.14
2018-01-18T15:30:47.449Z,80.85
2018-01-18T15:33:15.783Z,81.02
2018-01-18T15:35:44.088Z,80.66
2018-01-18T15:38:12.816Z,80.87
2018-01-18T15:40:41.153Z,80.39
2018-01-18T15:43:10.663Z,80.43
2018-01-18T15:45:39.017Z,80.95
2018-01-18T15:48:07.609Z,80.65
2018-01-18T15:50:36.084Z,80.73
2018-01-18T15:53:04.491Z,80.59
2018-01-18T15:55:32.837Z,80.41
2018-01-18T15:58:01.131Z,81.15
2018-01-18T16:00:29.736Z,81.39
2018-01-18T16:02:58.031Z,81.50
2018-01-18T16:05:26.332Z,81.08
2018-01-18T16:07:54.648Z,81.32
2018-01-18T16:10:22.969Z,81.54
2018-01-18T16:12:51.331Z,81.08
2018-01-18T16:15:19.714Z,80.73
2018-01-18T16:17:48.002Z,81.54
2018-01-18T16:20:17.088Z,81.27
2018-01-18T16:22:45.907Z,80.88
2018-01-18T16:25:14.221Z,81.18
2018-01-18T16:27:42.510Z,81.05
2018-01-18T16:30:10.848Z,80.53
2018-01-18T16:32:39.926Z,80.06
2018-01-18T16:35:08.245Z,80.19
2018-01-18T16:37:36.605Z,80.46
2018-01-18T16:40:04.975Z,80.41
2018-01-18T16:42:34.052Z,80.66
2018-01-18T16:45:03.636Z,80.13
2018-01-18T16:47:31.970Z,79.99
2018-01-18T16:50:00.269Z,80.17
2018-01-18T16:52:28.625Z,79.31
2018-01-18T16:54:56.933Z,79.19
2018-01-18T16:57:25.263Z,78.67
2018-01-18T16:59:53.784Z,78.78
2018-01-18T17:02:22.068Z,78.59
2018-01-18T17:04:51.144Z,78.01
2018-01-18T17:07:19.854Z,78.68
2018-01-18T17:09:48.195Z,78.11
2018-01-18T17:12:17.262Z,77.92
2018-01-18T17:14:45.617Z,77.80
2018-01-18T17:17:13.928Z,77.65
2018-01-18T17:19:42.294Z,77.87
2018-01-18T17:22:10.642Z,76.95
2018-01-18T17:24:39.255Z,77.21
2018-01-18T17:27:07.699Z,77.62
2018-01-18T17:29:36.314Z,77.13
2018-01-18T17:32:04.626Z,76.85
2018-01-18T17:34:32.928Z,77.23
2018-01-18T17:37:01.417Z,77.47
2018-01-18T17:39:29.763Z,77.33
2018-01-18T17:41:58.834Z,77.24
2018-01-18T17:44:27.161Z,77.70
2018-01-18T17:46:55.457Z,77.03
2018-01-18T17:49:23.785Z,77.20
2018-01-18T17:51:52.441Z,77.43
2018-01-18T17:54:20.741Z,76.78
2018-01-18T17:56:49.046Z,77.35
2018-01-18T17:59:17.368Z,76.66
2018-01-18T18:01:45.696Z,76.26
2018-01-18T18:04:14.772Z,76.98
2018-01-18T18:06:43.894Z,76.83
2018-01-18T18:09:12.217Z,76.46
2018-01-18T18:11:40.562Z,76.64
2018-01-18T18:14:09.431Z,77.01
2018-01-18T18:16:38.508Z,75.80
2018-01-18T18:19:06.844Z,75.88
2018-01-18T18:21:35.183Z,76.50
2018-01-18T18:24:04.236Z,76.97
2018-01-18T18:26:32.572Z,76.27
2018-01-18T18:29:00.919Z,76.43
2018-01-18T18:31:29.238Z,76.95
2018-01-18T18:33:59.085Z,77.18
2018-01-18T18:36:27.456Z,77.05
2018-01-18T18:38:55.762Z,76.96
2018-01-18T18:41:24.865Z,76.77
2018-01-18T18:43:53.966Z,77.35
2018-01-18T18:46:22.286Z,77.23
2018-01-18T18:48:50.676Z,76.78
2018-01-18T18:51:18.991Z,76.38
2018-01-18T18:53:47.316Z,76.04
2018-01-18T18:56:15.602Z,75.54
2018-01-18T18:58:44.267Z,76.18
2018-01-18T19:01:12.602Z,76.48
2018-01-18T19:03:40.940Z,75.95
2018-01-18T19:06:09.300Z,76.12
2018-01-18T19:08:37.649Z,76.28
2018-01-18T19:11:05.956Z,77.00
2018-01-18T19:13:34.293Z,76.84
2018-01-18T19:16:02.680Z,76.52
2018-01-18T19:18:31.022Z,77.99
2018-01-18T19:20:59.650Z,76.81
2018-01-18T19:23:27.980Z,77.03
2018-01-18T19:25:56.336Z,77.27
2018-01-18T19:28:24.701Z,76.55
2018-01-18T19:30:53.061Z,76.93
2018-01-18T19:33:22.086Z,77.16
2018-01-18T19:35:50.446Z,76.28
2018-01-18T19:38:18.784Z,76.31
2018-01-18T19:40:47.098Z,76.35
2018-01-18T19:43:15.593Z,76.29
2018-01-18T19:45:46.958Z,76.13
2018-01-18T19:48:15.278Z,75.99
2018-01-18T19:50:44.886Z,77.67
2018-01-18T19:53:13.191Z,77.98
2018-01-18T19:55:41.519Z,77.29
2018-01-18T19:58:09.944Z,77.00
2018-01-18T20:00:38.242Z,77.07
2018-01-18T20:03:06.576Z,77.20
2018-01-18T20:05:34.991Z,76.85
2018-01-18T20:08:03.282Z,76.65
2018-01-18T20:10:32.362Z,76.66
2018-01-18T20:13:00.691Z,77.76
2018-01-18T20:15:28.999Z,77.34
2018-01-18T20:17:57.414Z,76.85
2018-01-18T20:20:26.556Z,76.71
2018-01-18T20:22:54.864Z,76.05
2018-01-18T20:25:23.191Z,76.50
2018-01-18T20:27:51.754Z,76.31
2018-01-18T20:30:20.064Z,76.71
2018-01-18T20:32:48.360Z,76.97
2018-01-18T20:35:16.776Z,76.69
2018-01-18T20:37:45.095Z,77.23
2018-01-18T20:40:13.394Z,77.26
2018-01-18T20:42:41.750Z,77.11
2018-01-18T20:45:10.135Z,78.24
2018-01-18T20:47:38.432Z,77.86
2018-01-18T20:50:07.515Z,76.46
2018-01-18T20:52:36.242Z,76.26
2018-01-18T20:55:04.539Z,77.45
2018-01-18T20:57:33.657Z,77.09
2018-01-18T21:00:01.963Z,76.66
2018-01-18T21:02:30.259Z,76.51
2018-01-18T21:04:58.613Z,76.12
2018-01-18T21:07:26.944Z,76.16
2018-01-18T21:09:56.042Z,76.20
2018-01-18T21:12:25.274Z,76.32
2018-01-18T21:14:53.553Z,77.44
2018-01-18T21:17:21.868Z,76.71
2018-01-18T21:19:50.216Z,77.02
2018-01-18T21:22:18.557Z,77.53
2018-01-18T21:24:46.854Z,76.60
2018-01-18T21:27:15.229Z,76.03
2018-01-18T21:29:43.553Z,76.52
2018-01-18T21:32:11.879Z,75.75
2018-01-18T21:34:41.019Z,75.66
2018-01-18T21:37:09.299Z,76.24
2018-01-18T21:39:37.642Z,76.56
2018-01-18T21:42:05.970Z,75.93
2018-01-18T21:44:34.249Z,76.23
2018-01-18T21:47:02.632Z,75.60
2018-01-18T21:49:30.973Z,75.90
2018-01-18T21:51:59.273Z,76.81
2018-01-18T21:54:27.620Z,76.58
2018-01-18T21:56:56.306Z,76.43
2018-01-18T21:59:24.622Z,76.40
2018-01-18T22:01:52.921Z,76.38
2018-01-18T22:04:21.250Z,76.02
2018-01-18T22:06:49.610Z,75.90
2018-01-18T22:09:17.937Z,76.29
2018-01-18T22:11:46.277Z,76.79
2018-01-18T22:14:14.593Z,76.48
2018-01-18T22:16:42.877Z,76.57
2018-01-18T22:19:11.403Z,76.39
2018-01-18T22:21:39.732Z,75.86
2018-01-18T22:24:08.051Z,76.54
2018-01-18T22:26:37.145Z,76.84
2018-01-18T22:29:06.244Z,76.89
2018-01-18T22:31:34.554Z,77.42
2018-01-18T22:34:02.869Z,77.29
2018-01-18T22:36:31.168Z,76.81
2018-01-18T22:38:59.666Z,77.01
2018-01-18T22:41:28.212Z,77.10
2018-01-18T22:43:56.525Z,77.28
2018-01-18T22:46:25.017Z,76.86
2018-01-18T22:48:53.343Z,77.05
2018-01-18T22:51:21.631Z,77.20
2018-01-18T22:53:50.436Z,76.65
2018-01-18T22:56:19.529Z,76.90
2018-01-18T22:58:48.595Z,76.96
2018-01-18T23:01:16.916Z,76.98
2018-01-18T23:03:46.093Z,76.51
2018-01-18T23:06:14.432Z,76.85
2018-01-18T23:08:43.514Z,77.02
2018-01-18T23:11:11.852Z,76.81
2018-01-18T23:13:40.952Z,76.67
2018-01-18T23:16:10.035Z,75.71
2018-01-18T23:18:39.159Z,76.54
2018-01-18T23:21:07.471Z,76.91
2018-01-18T23:23:35.928Z,76.94
2018-01-18T23:26:04.728Z,76.81
2018-01-18T23:28:33.040Z,76.88
2018-01-18T23:31:01.357Z,77.25
2018-01-18T23:33:29.748Z,77.31
2018-01-18T23:35:58.051Z,77.07
2018-01-18T23:38:26.521Z,77.02
2018-01-18T23:40:55.007Z,76.90
2018-01-18T23:43:23.342Z,76.19
2018-01-18T23:45:51.624Z,76.50
2018-01-18T23:48:21.070Z,76.19
2018-01-18T23:50:49.376Z,76.07
2018-01-18T23:53:17.692Z,75.36
2018-01-18T23:55:46.815Z,75.75
2018-01-18T23:58:15.116Z,75.87
